EFVA

Vaasa Airport

Vaasa, Finland
METAR EFVA 181420Z AUTO 28005KT 9999 -SN FEW013/// SCT100/// M10/M12 Q0998
Observed Flight Rules
Jan-18 @ 14:20 UTC (24 minutes ago) Visual Flight Rules
Wind Visibility Clouds Conditions
280° at 5 knots 10,000+ meters
  • Few at 1,300' AGL
  • Scattered at 10,000' AGL
  • Light Snow
Temperatures Readings
Current -10°C / 14°F
Dewpoint -12°C / 10°F
Humidity 85%
Altimeter 29.47" Hg
Pressure 997.92 hPa
Elevation 4
METAR EFVA 181420Z AUTO 28005KT 9999 -SN FEW013/// SCT100/// M10/M12 Q0998
Observed Flight Rules
Jan-18 @ 14:20 UTC
(24 minutes ago)
VFR
Wind Visibility
280° at 5 knots 10,000+ meters
Clouds
  • Few at 1,300' AGL
  • Scattered at 10,000' AGL
Conditions
  • Light Snow
Temperature Dewpoint
-10°C / 14°F -12°C / 10°F
Humidity Altimeter Pressure
85% 29.47" Hg 997.92 hPa